Time;durP1;ratioP1;P1;durP2;ratioP2;P2;SDS_P1;SDS_P2;PMS_P1;PMS_P2;Temp;Humidity;BMP_temperature;BMP_pressure;BME280_temperature;BME280_humidity;BME280_pressure;Samples;Min_cycle;Max_cycle;Signal;HPM_P1;HPM_P2
2021/05/15 00:00:43;;;;;;;3.85;1.35;;;;;;;15.21;74.82;100817.97;1857543;76;21817;-73
2021/05/15 00:03:10;;;;;;;3.98;1.20;;;;;;;15.27;74.94;100816.98;1862797;76;21483;-75
2021/05/15 00:05:37;;;;;;;1.70;1.10;;;;;;;15.35;74.86;100825.01;1855412;76;21004;-76
2021/05/15 00:08:06;;;;;;;5.70;1.77;;;;;;;15.38;74.66;100824.75;1855446;76;20968;-74
2021/05/15 00:10:33;;;;;;;3.83;1.35;;;;;;;15.38;74.60;100831.29;1847040;76;21775;-77
2021/05/15 00:13:00;;;;;;;3.17;1.55;;;;;;;15.37;74.73;100827.52;1860118;76;21832;-75
2021/05/15 00:15:27;;;;;;;1.95;1.67;;;;;;;15.36;74.82;100835.83;1874535;76;21069;-74
2021/05/15 00:17:55;;;;;;;3.55;1.45;;;;;;;15.38;74.99;100834.88;1862092;76;20952;-75
2021/05/15 00:20:23;;;;;;;2.77;1.47;;;;;;;15.39;75.20;100832.12;1855122;76;20982;-75
2021/05/15 00:22:50;;;;;;;5.90;1.75;;;;;;;15.41;75.32;100835.46;1860548;76;21419;-77
2021/05/15 00:25:18;;;;;;;3.67;1.35;;;;;;;15.40;75.43;100830.34;1862911;76;21073;-77
2021/05/15 00:27:45;;;;;;;6.83;1.87;;;;;;;15.38;75.65;100836.52;1873194;76;20905;-77
2021/05/15 00:30:14;;;;;;;3.33;2.10;;;;;;;15.36;75.67;100837.14;1852472;76;21566;-76
2021/05/15 00:32:41;;;;;;;2.58;1.70;;;;;;;15.31;75.79;100835.39;1847422;76;20915;-76
2021/05/15 00:35:09;;;;;;;2.02;1.50;;;;;;;15.25;76.16;100842.41;1854055;76;21056;-76
2021/05/15 00:37:36;;;;;;;5.47;1.65;;;;;;;15.18;76.31;100842.59;1853559;76;21154;-76
2021/05/15 00:40:09;;;;;;;2.45;1.52;;;;;;;15.11;76.68;100844.05;1861818;76;20973;-76
2021/05/15 00:42:36;;;;;;;3.35;1.50;;;;;;;15.06;77.05;100844.88;1866924;76;21585;-75
2021/05/15 00:45:05;;;;;;;6.50;1.50;;;;;;;15.02;77.43;100846.58;1862972;76;20982;-76
2021/05/15 00:47:32;;;;;;;2.37;1.75;;;;;;;14.99;77.80;100854.67;1858949;76;20920;-76
2021/05/15 00:49:59;;;;;;;2.80;1.60;;;;;;;14.96;78.10;100856.23;1863403;76;21028;-76
2021/05/15 00:52:29;;;;;;;4.95;1.90;;;;;;;14.94;78.30;100861.56;1878286;76;21040;-76
2021/05/15 00:54:55;;;;;;;4.05;1.75;;;;;;;14.90;78.53;100861.45;1827665;76;20984;-76
2021/05/15 00:57:22;;;;;;;3.65;2.17;;;;;;;14.86;78.82;100873.59;1867563;76;20966;-75
2021/05/15 00:59:49;;;;;;;3.33;2.30;;;;;;;14.84;79.00;100869.78;1868054;76;20947;-75
2021/05/15 01:02:16;;;;;;;4.85;1.65;;;;;;;14.80;79.34;100871.81;1851800;76;21575;-75
2021/05/15 01:04:43;;;;;;;4.70;1.57;;;;;;;14.75;79.67;100867.44;1863687;76;20954;-77
2021/05/15 01:07:11;;;;;;;6.53;2.00;;;;;;;14.74;80.13;100870.19;1868803;76;20962;-76
2021/05/15 01:09:38;;;;;;;2.80;1.50;;;;;;;14.73;80.36;100868.52;1862147;76;20972;-76
2021/05/15 01:12:07;;;;;;;4.28;1.62;;;;;;;14.74;80.53;100870.19;1860229;76;20967;-76
2021/05/15 01:14:38;;;;;;;3.15;1.45;;;;;;;14.74;80.47;100870.19;1865089;76;21091;-75
2021/05/15 01:17:08;;;;;;;3.65;1.75;;;;;;;14.70;80.54;100866.99;1859901;76;20934;-76
2021/05/15 01:19:36;;;;;;;3.02;1.52;;;;;;;14.69;80.89;100867.09;1863108;76;20847;-77
2021/05/15 01:22:10;;;;;;;3.22;1.77;;;;;;;14.66;81.10;100868.66;1869214;76;21064;-76
2021/05/15 01:24:37;;;;;;;4.65;1.92;;;;;;;14.58;81.15;100862.72;1850404;76;21056;-77
2021/05/15 01:27:09;;;;;;;2.25;1.52;;;;;;;14.53;81.22;100866.66;1872796;76;20974;-77
2021/05/15 01:29:36;;;;;;;2.92;1.50;;;;;;;14.48;81.47;100864.42;1868684;76;20993;-77
2021/05/15 01:32:03;;;;;;;5.95;1.95;;;;;;;14.45;81.30;100866.45;1867740;76;20997;-77
2021/05/15 01:34:30;;;;;;;4.83;2.02;;;;;;;14.35;80.85;100868.95;1863155;76;20980;-77
2021/05/15 01:36:57;;;;;;;5.50;3.10;;;;;;;14.20;80.64;100872.70;1873899;76;21476;-77
2021/05/15 01:39:24;;;;;;;2.75;2.10;;;;;;;14.07;80.78;100881.14;1857351;76;21566;-77
2021/05/15 01:41:51;;;;;;;3.60;1.50;;;;;;;13.97;81.19;100885.41;1868771;76;20882;-76
2021/05/15 01:44:19;;;;;;;3.27;1.75;;;;;;;13.92;81.83;100880.99;1850971;76;20937;-78
2021/05/15 01:46:46;;;;;;;5.58;1.87;;;;;;;13.90;82.54;100885.51;1847045;76;21175;-76
2021/05/15 01:49:13;;;;;;;3.77;1.60;;;;;;;13.90;83.10;100890.25;1847141;76;21573;-75
2021/05/15 01:51:41;;;;;;;3.40;1.80;;;;;;;13.93;83.42;100891.80;1846215;76;21514;-73
2021/05/15 01:54:08;;;;;;;3.12;1.80;;;;;;;13.97;83.63;100891.45;1861356;76;20976;-75
2021/05/15 01:56:37;;;;;;;3.75;1.90;;;;;;;14.01;83.78;100894.63;1855050;76;20889;-74
2021/05/15 01:59:07;;;;;;;4.87;2.25;;;;;;;14.05;83.83;100896.07;1863368;76;21001;-76
2021/05/15 02:01:33;;;;;;;7.40;2.15;;;;;;;14.06;83.83;100897.27;1868733;76;20956;-74
2021/05/15 02:04:01;;;;;;;4.22;2.27;;;;;;;14.09;83.90;100900.11;1866791;76;21095;-75
2021/05/15 02:06:28;;;;;;;5.65;1.75;;;;;;;14.19;83.58;100895.86;1869027;76;21078;-73
2021/05/15 02:08:55;;;;;;;4.70;1.82;;;;;;;14.29;83.04;100894.20;1866240;76;21013;-73
2021/05/15 02:11:22;;;;;;;5.90;1.95;;;;;;;14.36;82.47;100898.00;1856558;76;21024;-74
2021/05/15 02:13:50;;;;;;;3.40;1.77;;;;;;;14.39;82.01;100897.76;1869568;76;21029;-73
2021/05/15 02:16:18;;;;;;;4.28;2.25;;;;;;;14.41;81.52;100897.66;1862041;76;21553;-73
2021/05/15 02:18:47;;;;;;;2.85;2.12;;;;;;;14.40;81.20;100898.59;1868907;76;20866;-73
2021/05/15 02:21:14;;;;;;;2.30;1.65;;;;;;;14.40;81.00;100899.43;1862538;76;21728;-71
2021/05/15 02:23:41;;;;;;;4.00;1.60;;;;;;;14.40;80.89;100902.04;1865568;76;21456;-74
2021/05/15 02:26:08;;;;;;;4.25;1.87;;;;;;;14.39;80.80;100900.38;1851001;76;21043;-72
2021/05/15 02:28:35;;;;;;;3.92;2.05;;;;;;;14.39;80.79;100899.56;1858717;76;21074;-72
2021/05/15 02:31:02;;;;;;;3.92;2.02;;;;;;;14.36;80.81;100901.11;1858554;76;20910;-72
2021/05/15 02:33:29;;;;;;;4.35;1.82;;;;;;;14.35;80.86;100905.97;1867608;76;21057;-74
2021/05/15 02:35:56;;;;;;;1.60;1.50;;;;;;;14.35;80.98;100909.88;1874162;76;21132;-73
2021/05/15 02:38:24;;;;;;;4.22;2.20;;;;;;;14.36;81.09;100914.17;1857753;76;20905;-71
2021/05/15 02:40:56;;;;;;;4.62;1.98;;;;;;;14.37;81.04;100910.58;1874100;76;21508;-74
2021/05/15 02:43:23;;;;;;;4.33;2.58;;;;;;;14.37;81.00;100910.11;1865120;76;21013;-73
2021/05/15 02:45:50;;;;;;;4.80;2.20;;;;;;;14.39;81.04;100908.20;1854464;76;20933;-73
2021/05/15 02:48:17;;;;;;;2.25;1.75;;;;;;;14.38;81.08;100915.70;1862899;76;21579;-75
2021/05/15 02:50:50;;;;;;;7.60;2.52;;;;;;;14.37;81.10;100914.03;1867921;76;20941;-75
2021/05/15 02:53:17;;;;;;;;;;;;;;;14.36;81.25;100911.05;1860323;76;21062;-75
2021/05/15 02:55:45;;;;;;;5.30;2.50;;;;;;;14.35;81.66;100912.49;1861375;76;20153;-73
2021/05/15 02:58:16;;;;;;;5.53;2.05;;;;;;;14.30;81.79;100914.95;1867611;76;21598;-72
2021/05/15 03:00:41;;;;;;;3.80;2.12;;;;;;;14.32;81.88;100913.54;1867662;76;20905;-75
2021/05/15 03:03:09;;;;;;;4.95;2.62;;;;;;;14.30;81.98;100916.25;1852533;76;20988;-74
2021/05/15 03:05:36;;;;;;;3.60;2.27;;;;;;;14.31;82.10;100918.39;1864235;76;21072;-74
2021/05/15 03:08:04;;;;;;;5.80;2.25;;;;;;;14.29;82.35;100918.50;1858445;76;20989;-74
2021/05/15 03:10:32;;;;;;;3.92;2.40;;;;;;;14.25;82.37;100917.56;1869395;76;21036;-73
2021/05/15 03:12:59;;;;;;;7.87;2.52;;;;;;;14.24;82.49;100918.03;1858881;76;21048;-75
2021/05/15 03:15:26;;;;;;;4.55;2.52;;;;;;;14.22;82.60;100916.03;1867887;76;20897;-75
2021/05/15 03:17:56;;;;;;;4.87;3.10;;;;;;;14.23;82.77;100915.56;1860259;76;20898;-75
2021/05/15 03:20:25;;;;;;;7.10;2.90;;;;;;;14.24;82.97;100918.03;1865515;76;20940;-75
2021/05/15 03:22:53;;;;;;;9.70;3.10;;;;;;;14.22;83.04;100913.89;1859441;76;21584;-75
2021/05/15 03:25:21;;;;;;;6.55;2.67;;;;;;;14.20;82.82;100920.98;1871308;76;20874;-76
2021/05/15 03:27:48;;;;;;;5.35;2.10;;;;;;;14.16;82.87;100916.97;1847668;76;20825;-75
2021/05/15 03:30:16;;;;;;;5.85;2.42;;;;;;;14.11;83.24;100913.40;1871190;76;21072;-75
2021/05/15 03:32:45;;;;;;;3.80;2.30;;;;;;;14.10;83.72;100922.66;1869874;76;21071;-76
2021/05/15 03:35:13;;;;;;;14.30;2.47;;;;;;;14.09;83.91;100924.91;1860070;76;21101;-75
2021/05/15 03:37:40;;;;;;;13.15;2.85;;;;;;;14.09;84.14;100922.30;1870378;76;21032;-75
2021/05/15 03:40:08;;;;;;;9.58;2.40;;;;;;;14.10;84.40;100917.45;1871065;76;21037;-77
2021/05/15 03:42:35;;;;;;;5.62;2.67;;;;;;;14.11;84.42;100923.84;1847569;76;21601;-75
2021/05/15 03:45:03;;;;;;;7.90;2.47;;;;;;;14.15;84.66;100923.97;1864897;76;21587;-75
2021/05/15 03:47:30;;;;;;;8.43;2.72;;;;;;;14.20;84.78;100924.90;1854986;76;20945;-75
2021/05/15 03:49:57;;;;;;;6.22;2.40;;;;;;;14.26;84.80;100925.27;1856431;76;21123;-74
2021/05/15 03:52:24;;;;;;;8.33;2.80;;;;;;;14.33;84.65;100924.34;1863930;76;21056;-74
2021/05/15 03:54:52;;;;;;;7.28;2.90;;;;;;;14.39;84.42;100919.15;1856534;76;21896;-76
2021/05/15 03:57:18;;;;;;;8.70;2.37;;;;;;;14.45;84.32;100916.89;1847318;76;20937;-74
2021/05/15 03:59:45;;;;;;;5.05;2.40;;;;;;;14.52;84.56;100918.05;1866937;76;20961;-75
2021/05/15 04:02:12;;;;;;;3.25;2.10;;;;;;;14.60;84.75;100920.91;1853712;76;21481;-75
2021/05/15 04:04:40;;;;;;;7.20;3.12;;;;;;;14.64;84.79;100922.80;1857823;76;21473;-73
2021/05/15 04:07:07;;;;;;;6.45;2.67;;;;;;;14.70;84.96;100924.46;1863747;76;21694;-75
2021/05/15 04:09:35;;;;;;;7.40;3.37;;;;;;;14.76;85.07;100921.83;1864545;76;20950;-74
2021/05/15 04:12:03;;;;;;;5.40;2.62;;;;;;;14.81;85.06;100917.89;1860449;76;20894;-75
2021/05/15 04:14:39;;;;;;;5.92;2.55;;;;;;;14.89;85.05;100919.91;1847351;76;20995;-76
2021/05/15 04:17:15;;;;;;;5.20;2.33;;;;;;;14.97;84.97;100920.58;1855325;76;20908;-75
2021/05/15 04:19:31;;;;;;;7.10;3.37;;;;;;;15.02;84.85;100915.36;1862121;75;21657;-73
2021/05/15 04:21:58;;;;;;;6.53;2.58;;;;;;;15.09;84.72;100922.23;1871229;76;21478;-71
2021/05/15 04:24:26;;;;;;;5.65;2.85;;;;;;;15.16;84.29;100915.06;1865791;76;20976;-74
2021/05/15 04:26:56;;;;;;;4.35;2.47;;;;;;;15.26;83.93;100922.98;1862521;76;20946;-73
2021/05/15 04:29:24;;;;;;;3.90;2.22;;;;;;;15.35;82.95;100924.85;1847180;76;20937;-72
2021/05/15 04:31:56;;;;;;;3.05;2.20;;;;;;;15.42;82.54;100922.56;1860202;76;21603;-75
2021/05/15 04:34:20;;;;;;;2.72;2.10;;;;;;;15.48;81.51;100926.02;1858074;76;21017;-71
2021/05/15 04:36:47;;;;;;;5.50;2.33;;;;;;;15.55;80.96;100927.17;1862694;76;20972;-71
2021/05/15 04:39:15;;;;;;;3.20;2.00;;;;;;;15.65;79.08;100925.47;1864795;76;20874;-72
2021/05/15 04:41:42;;;;;;;4.33;2.15;;;;;;;15.75;77.70;100933.73;1873357;76;20977;-72
2021/05/15 04:44:09;;;;;;;5.60;2.10;;;;;;;15.83;76.56;100924.76;1870302;76;21027;-71
2021/05/15 04:46:36;;;;;;;3.60;2.05;;;;;;;15.92;75.99;100930.20;1866728;76;21058;-75
2021/05/15 04:49:04;;;;;;;3.10;2.42;;;;;;;16.00;75.36;100929.06;1853603;76;21519;-72
2021/05/15 04:51:31;;;;;;;3.95;2.52;;;;;;;16.07;74.49;100928.90;1862442;76;20929;-73
2021/05/15 04:54:01;;;;;;;3.45;2.40;;;;;;;16.12;74.33;100930.63;1847130;76;20956;-74
2021/05/15 04:56:30;;;;;;;3.20;2.47;;;;;;;16.13;74.18;100928.37;1860558;76;21679;-75
2021/05/15 04:58:57;;;;;;;4.30;2.17;;;;;;;16.14;74.35;100925.64;1856708;76;20929;-72
2021/05/15 05:01:25;;;;;;;6.72;2.77;;;;;;;16.18;74.52;100927.02;1863983;76;20950;-74
2021/05/15 05:03:51;;;;;;;6.03;2.42;;;;;;;16.24;74.67;100926.49;1865305;76;21620;-72
2021/05/15 05:06:19;;;;;;;4.90;2.52;;;;;;;16.29;74.73;100926.11;1857324;76;21427;-76
2021/05/15 05:08:47;;;;;;;2.77;2.12;;;;;;;16.36;74.82;100925.94;1869879;76;21100;-73
2021/05/15 05:11:14;;;;;;;6.08;2.67;;;;;;;16.43;74.72;100935.41;1856854;76;22076;-72
2021/05/15 05:13:42;;;;;;;7.50;2.52;;;;;;;16.50;74.51;100930.80;1856601;76;21008;-78
2021/05/15 05:16:09;;;;;;;7.67;2.33;;;;;;;16.61;74.23;100939.09;1865655;76;20958;-77
2021/05/15 05:18:36;;;;;;;4.75;2.50;;;;;;;16.70;74.00;100939.59;1858129;76;20927;-74
2021/05/15 05:21:03;;;;;;;7.47;2.90;;;;;;;16.78;74.38;100945.02;1850484;76;21076;-75
2021/05/15 05:23:30;;;;;;;4.20;2.83;;;;;;;16.86;74.43;100939.91;1862707;76;20968;-73
2021/05/15 05:25:57;;;;;;;9.15;3.35;;;;;;;16.94;74.41;100950.06;1857584;76;20867;-75
2021/05/15 05:28:38;;;;;;;6.65;2.67;;;;;;;17.01;74.61;100952.17;1863088;76;20934;-74
2021/05/15 05:31:04;;;;;;;7.15;3.05;;;;;;;17.06;74.79;100953.42;1869439;76;21058;-72
2021/05/15 05:33:32;;;;;;;4.65;2.60;;;;;;;17.12;74.43;100952.88;1859989;76;21016;-75
2021/05/15 05:35:59;;;;;;;2.95;2.30;;;;;;;17.20;74.39;100953.52;1862661;76;21033;-72
2021/05/15 05:38:26;;;;;;;4.17;2.50;;;;;;;17.28;74.30;100955.79;1869650;76;21500;-75
2021/05/15 05:40:53;;;;;;;4.75;2.87;;;;;;;17.33;73.09;100956.67;1869421;76;20946;-71
2021/05/15 05:43:21;;;;;;;2.90;2.25;;;;;;;17.38;71.68;100954.48;1876511;76;20835;-71
2021/05/15 05:45:48;;;;;;;4.95;2.65;;;;;;;17.45;71.80;100955.59;1864783;76;21471;-74
2021/05/15 05:48:18;;;;;;;6.45;2.67;;;;;;;17.51;71.28;100955.04;1869532;76;20977;-75
2021/05/15 05:50:46;;;;;;;2.90;2.60;;;;;;;17.57;71.04;100958.45;1846867;77;20980;-72
2021/05/15 05:53:15;;;;;;;3.47;2.10;;;;;;;17.65;70.02;100955.95;1847833;76;20964;-75
2021/05/15 05:55:42;;;;;;;3.67;2.37;;;;;;;17.77;67.77;100953.51;1871245;76;20989;-76
2021/05/15 05:58:09;;;;;;;3.17;1.72;;;;;;;17.87;67.60;100962.20;1864134;76;21136;-75
2021/05/15 06:00:36;;;;;;;5.83;2.08;;;;;;;17.94;63.88;100953.28;1862349;76;20859;-75
2021/05/15 06:03:03;;;;;;;3.67;1.77;;;;;;;18.04;62.42;100957.20;1867641;76;21504;-76
2021/05/15 06:05:31;;;;;;;5.72;2.17;;;;;;;18.12;62.61;100954.70;1869313;76;20890;-73
2021/05/15 06:08:06;;;;;;;2.45;1.70;;;;;;;18.20;61.77;100956.95;1866206;76;20902;-75
2021/05/15 06:10:37;;;;;;;7.08;1.82;;;;;;;18.26;62.32;100957.70;1860771;76;21065;-74
2021/05/15 06:13:07;;;;;;;3.77;2.02;;;;;;;18.31;61.58;100956.80;1872413;76;21092;-73
2021/05/15 06:15:36;;;;;;;6.07;2.03;;;;;;;18.36;61.74;100955.86;1862624;76;20946;-76
2021/05/15 06:18:04;;;;;;;3.72;1.92;;;;;;;18.43;61.36;100954.33;1864498;76;20930;-74
2021/05/15 06:20:31;;;;;;;7.25;2.00;;;;;;;18.48;61.21;100959.13;1870998;76;21474;-71
2021/05/15 06:23:00;;;;;;;3.05;2.20;;;;;;;18.53;60.23;100962.69;1863792;76;21039;-76
2021/05/15 06:25:27;;;;;;;3.25;2.05;;;;;;;18.58;60.17;100962.58;1847158;76;21123;-73
2021/05/15 06:27:54;;;;;;;3.40;1.85;;;;;;;18.63;58.65;100965.63;1848597;76;21052;-76
2021/05/15 06:30:21;;;;;;;2.47;2.10;;;;;;;18.69;57.16;100957.62;1866599;76;20974;-73
2021/05/15 06:32:47;;;;;;;2.52;1.90;;;;;;;18.76;57.07;100957.39;1863957;76;20922;-76
2021/05/15 06:35:14;;;;;;;5.00;1.85;;;;;;;18.77;57.36;100959.02;1856243;76;21068;-72
2021/05/15 06:37:41;;;;;;;5.47;1.92;;;;;;;18.82;57.92;100955.48;1866148;76;21073;-73
2021/05/15 06:40:10;;;;;;;2.80;1.87;;;;;;;18.86;57.94;100945.83;1841301;76;20968;-76
2021/05/15 06:42:37;;;;;;;3.67;2.15;;;;;;;18.98;58.45;100954.36;1858037;76;21621;-76
2021/05/15 06:45:06;;;;;;;3.90;2.00;;;;;;;19.07;58.78;100953.46;1868532;76;21577;-71
2021/05/15 06:47:33;;;;;;;4.05;2.02;;;;;;;19.15;59.01;100956.64;1848621;76;21082;-76
2021/05/15 06:50:00;;;;;;;2.75;1.67;;;;;;;19.22;57.41;100961.17;1855680;76;21471;-75
2021/05/15 06:52:27;;;;;;;5.12;2.42;;;;;;;19.28;57.21;100959.73;1860905;76;20847;-73
2021/05/15 06:54:55;;;;;;;4.47;1.60;;;;;;;19.34;57.23;100961.77;1847906;76;21083;-77
2021/05/15 06:57:22;;;;;;;4.22;1.80;;;;;;;19.40;57.37;100960.71;1852332;76;20977;-77
2021/05/15 06:59:50;;;;;;;2.92;1.75;;;;;;;19.48;57.82;100963.91;1856498;76;21879;-75
2021/05/15 07:02:19;;;;;;;4.85;1.55;;;;;;;19.56;57.47;100966.61;1868410;76;20957;-74
2021/05/15 07:04:46;;;;;;;15.13;2.95;;;;;;;19.64;57.24;100964.06;1868340;76;20961;-78
2021/05/15 07:07:13;;;;;;;3.30;1.55;;;;;;;19.70;56.85;100971.83;1846969;76;21553;-75
2021/05/15 07:09:40;;;;;;;2.45;1.47;;;;;;;19.78;55.37;100967.48;1874698;76;20969;-76
2021/05/15 07:12:07;;;;;;;3.05;1.40;;;;;;;19.88;54.15;100963.41;1862641;76;21048;-75
2021/05/15 07:14:35;;;;;;;2.47;1.22;;;;;;;19.96;53.43;100957.72;1867810;76;20993;-77
2021/05/15 07:17:02;;;;;;;3.47;1.60;;;;;;;20.07;50.82;100960.57;1867065;76;20881;-74
2021/05/15 07:19:30;;;;;;;2.65;1.80;;;;;;;20.15;51.44;100958.00;1867800;76;20879;-77
2021/05/15 07:21:57;;;;;;;1.80;1.17;;;;;;;20.20;52.75;100964.94;1870373;76;20925;-74
2021/05/15 07:24:24;;;;;;;2.12;1.30;;;;;;;20.23;49.58;100957.23;1872327;76;21814;-74
2021/05/15 07:26:51;;;;;;;4.72;1.30;;;;;;;20.31;48.89;100963.41;1866426;76;21119;-70
2021/05/15 07:29:18;;;;;;;2.67;1.20;;;;;;;20.36;48.99;100966.87;1869079;76;21020;-72
2021/05/15 07:31:45;;;;;;;3.05;1.10;;;;;;;20.41;48.87;100958.02;1860429;76;20942;-76
2021/05/15 07:34:14;;;;;;;2.58;1.27;;;;;;;20.48;48.76;100961.20;1870611;76;21017;-70
2021/05/15 07:36:41;;;;;;;1.25;1.10;;;;;;;20.57;48.35;100964.69;1865017;76;21159;-76
2021/05/15 07:39:08;;;;;;;4.72;1.17;;;;;;;20.67;48.38;100965.39;1864210;76;20931;-79
2021/05/15 07:41:36;;;;;;;1.52;1.15;;;;;;;20.79;49.09;100965.92;1866391;76;20899;-77
2021/05/15 07:44:04;;;;;;;4.12;1.15;;;;;;;20.86;48.26;100961.17;1871338;76;21025;-73
2021/05/15 07:46:32;;;;;;;1.75;1.22;;;;;;;20.92;48.86;100964.98;1876449;76;21124;-75
2021/05/15 07:49:00;;;;;;;3.25;1.27;;;;;;;20.97;49.55;100966.14;1859000;76;21484;-77
2021/05/15 07:51:27;;;;;;;2.60;1.30;;;;;;;21.04;48.49;100958.41;1861746;76;21075;-76
2021/05/15 07:53:56;;;;;;;2.62;1.20;;;;;;;21.12;47.33;100961.60;1858377;76;20967;-76
2021/05/15 07:56:23;;;;;;;2.58;1.20;;;;;;;21.17;47.94;100965.89;1857047;76;20928;-78
2021/05/15 07:58:49;;;;;;;2.25;1.12;;;;;;;21.25;47.71;100961.44;1870668;76;21640;-72
2021/05/15 08:01:16;;;;;;;1.85;1.10;;;;;;;21.28;46.99;100955.86;1866468;76;21705;-71
2021/05/15 08:03:43;;;;;;;2.27;1.20;;;;;;;21.29;47.46;100957.98;1867351;76;21033;-74
2021/05/15 08:06:10;;;;;;;2.62;1.32;;;;;;;21.32;47.53;100961.61;1844212;76;20890;-71
2021/05/15 08:08:39;;;;;;;2.65;1.02;;;;;;;21.38;47.17;100956.51;1868453;76;20970;-76
2021/05/15 08:11:06;;;;;;;1.98;1.35;;;;;;;21.46;47.85;100959.17;1847292;76;20968;-75
2021/05/15 08:13:33;;;;;;;2.35;1.05;;;;;;;21.54;47.84;100956.52;1859693;76;21077;-80
2021/05/15 08:16:00;;;;;;;2.62;1.35;;;;;;;21.62;47.58;100954.39;1850178;76;20837;-73
2021/05/15 08:18:27;;;;;;;1.52;1.10;;;;;;;21.69;47.48;100956.70;1862539;76;20981;-73
2021/05/15 08:20:54;;;;;;;3.17;1.00;;;;;;;21.76;47.46;100956.34;1870896;76;20978;-76
2021/05/15 08:23:22;;;;;;;2.42;1.15;;;;;;;21.82;46.89;100957.52;1868104;76;21297;-75
2021/05/15 08:25:48;;;;;;;2.70;1.30;;;;;;;21.84;47.10;100947.11;1865836;76;21066;-77
2021/05/15 08:28:16;;;;;;;3.52;1.05;;;;;;;21.92;47.15;100956.36;1859695;76;21002;-71
2021/05/15 08:30:44;;;;;;;4.25;1.57;;;;;;;21.98;47.55;100951.76;1868531;76;21179;-77
2021/05/15 08:33:11;;;;;;;4.50;1.00;;;;;;;22.06;47.09;100950.41;1865280;76;21012;-73
2021/05/15 08:35:38;;;;;;;2.27;1.30;;;;;;;22.14;46.69;100956.19;1858137;76;21754;-76
2021/05/15 08:38:05;;;;;;;1.62;0.80;;;;;;;22.25;44.95;100954.48;1873088;75;21627;-76
2021/05/15 08:40:32;;;;;;;1.70;0.80;;;;;;;22.28;45.63;100947.54;1850756;76;21076;-74
2021/05/15 08:42:59;;;;;;;3.12;1.07;;;;;;;22.29;45.21;100948.37;1861697;76;20879;-73
2021/05/15 08:45:26;;;;;;;4.25;2.67;;;;;;;22.37;44.96;100947.04;1849393;76;21079;-76
2021/05/15 08:47:55;;;;;;;4.35;1.82;;;;;;;22.43;44.47;100944.50;1864248;76;21002;-74
2021/05/15 08:50:25;;;;;;;4.62;1.35;;;;;;;22.45;44.10;100940.38;1843307;77;21084;-77
2021/05/15 08:52:54;;;;;;;2.45;1.42;;;;;;;22.48;44.52;100937.39;1862264;76;20972;-78
2021/05/15 08:55:30;;;;;;;1.85;1.00;;;;;;;22.55;44.17;100933.91;1863751;76;20866;-76
2021/05/15 08:57:58;;;;;;;2.52;0.90;;;;;;;22.64;43.46;100936.00;1866937;76;21005;-77
2021/05/15 09:00:33;;;;;;;3.50;1.05;;;;;;;22.70;42.90;100926.58;1848856;76;21399;-75
2021/05/15 09:03:03;;;;;;;2.80;0.93;;;;;;;22.73;43.17;100924.91;1868685;76;21067;-80
2021/05/15 09:05:33;;;;;;;5.42;0.95;;;;;;;22.85;43.40;100920.86;1864726;76;21024;-78
2021/05/15 09:08:01;;;;;;;3.37;1.20;;;;;;;23.02;43.14;100921.11;1870213;76;21032;-76
2021/05/15 09:10:32;;;;;;;1.32;0.72;;;;;;;23.20;41.93;100922.95;1854459;76;20845;-74
2021/05/15 09:13:27;;;;;;;3.92;0.98;;;;;;;23.24;41.75;100911.52;1854291;76;20853;-80
2021/05/15 09:16:00;;;;;;;1.05;0.90;;;;;;;23.26;42.16;100916.16;1861875;76;21084;-77
2021/05/15 09:18:35;;;;;;;1.42;0.75;;;;;;;23.26;42.22;100914.83;1865343;76;21061;-77
2021/05/15 09:21:05;;;;;;;4.30;1.60;;;;;;;23.30;41.32;100926.20;1856684;76;21273;-76
2021/05/15 09:23:34;;;;;;;2.45;1.15;;;;;;;23.35;41.05;100922.53;1871972;76;20929;-71
2021/05/15 09:26:06;;;;;;;2.37;1.00;;;;;;;23.34;40.74;100922.70;1863742;76;21432;-76
2021/05/15 09:28:46;;;;;;;2.77;0.80;;;;;;;23.31;40.64;100913.29;1855069;76;21006;-77
2021/05/15 09:31:31;;;;;;;37.10;5.22;;;;;;;23.35;41.43;100917.23;1870606;76;21545;-79
2021/05/15 09:34:08;;;;;;;6.37;1.27;;;;;;;23.54;41.01;100919.92;1859954;76;21613;-76
2021/05/15 09:36:37;;;;;;;2.52;0.90;;;;;;;23.66;40.19;100917.16;1868433;76;21676;-79
2021/05/15 09:39:12;;;;;;;4.20;1.25;;;;;;;23.70;40.39;100914.48;1865668;76;21012;-73
2021/05/15 09:41:44;;;;;;;2.08;1.12;;;;;;;23.72;39.20;100919.09;1864946;76;21088;-88
2021/05/15 09:44:15;;;;;;;1.57;1.15;;;;;;;23.63;39.82;100917.52;1862012;76;21533;-79
2021/05/15 09:46:43;;;;;;;15.35;2.62;;;;;;;23.69;40.45;100920.28;1857539;76;20992;-74
2021/05/15 09:49:13;;;;;;;6.72;2.60;;;;;;;23.86;40.81;100916.98;1847296;77;20901;-79
2021/05/15 09:52:00;;;;;;;3.45;1.20;;;;;;;24.02;40.53;100918.63;1864940;76;21533;-82
2021/05/15 09:54:31;;;;;;;4.05;1.20;;;;;;;24.76;40.35;100910.44;1853963;76;21644;-84
2021/05/15 09:57:04;;;;;;;1.62;0.75;;;;;;;26.35;37.70;100905.48;1869813;76;21017;-83
2021/05/15 09:59:36;;;;;;;3.67;1.75;;;;;;;27.94;35.36;100905.54;1858928;76;20992;-76
2021/05/15 10:02:06;;;;;;;2.70;0.90;;;;;;;29.37;30.70;100899.25;1866693;76;20855;-78
2021/05/15 10:04:33;;;;;;;1.02;0.70;;;;;;;29.90;29.67;100901.45;1856527;76;21476;-76
2021/05/15 10:07:00;;;;;;;3.50;0.80;;;;;;;30.18;28.94;100899.11;1865203;76;21606;-79
2021/05/15 10:09:35;;;;;;;2.60;1.10;;;;;;;30.26;28.38;100892.62;1870184;76;21597;-78
2021/05/15 10:12:06;;;;;;;1.82;0.90;;;;;;;30.88;28.35;100888.22;1868871;76;20997;-72
2021/05/15 10:14:34;;;;;;;1.17;0.62;;;;;;;31.59;26.70;100889.21;1861586;77;20977;-74
2021/05/15 10:17:03;;;;;;;3.42;1.55;;;;;;;31.57;26.59;100881.91;1859125;76;21432;-74
2021/05/15 10:19:30;;;;;;;1.57;0.90;;;;;;;30.94;26.48;100883.80;1867971;76;21631;-81
2021/05/15 10:21:57;;;;;;;0.65;0.65;;;;;;;30.52;27.11;100891.50;1864986;76;21031;-77
2021/05/15 10:24:28;;;;;;;1.60;0.85;;;;;;;30.30;27.36;100887.94;1854029;76;21447;-76
2021/05/15 10:27:03;;;;;;;4.47;1.05;;;;;;;30.14;27.69;100887.20;1875468;76;20926;-76
2021/05/15 10:29:52;;;;;;;3.20;2.02;;;;;;;29.52;28.35;100887.39;1858021;76;20873;-81
2021/05/15 10:32:30;;;;;;;17.30;11.05;;;;;;;29.02;28.89;100875.84;1856029;76;21690;-81
2021/05/15 10:35:07;;;;;;;12.03;10.05;;;;;;;28.78;29.48;100870.77;1861517;76;21138;-74
2021/05/15 10:37:39;;;;;;;2.72;1.20;;;;;;;28.55;29.96;100883.80;1869089;76;21601;-75
2021/05/15 10:40:17;;;;;;;2.50;1.20;;;;;;;27.75;30.28;100894.39;1862399;76;21056;-78
2021/05/15 10:42:57;;;;;;;3.40;1.75;;;;;;;26.86;31.69;100891.25;1867705;76;21021;-73
2021/05/15 10:45:41;;;;;;;7.45;2.37;;;;;;;26.45;33.04;100897.95;1868338;76;21075;-78
2021/05/15 10:48:24;;;;;;;6.08;2.58;;;;;;;26.13;35.50;100895.92;1871563;76;21021;-73
2021/05/15 10:50:57;;;;;;;4.10;2.20;;;;;;;25.75;37.26;100897.61;1861755;76;21038;-77
2021/05/15 10:53:27;;;;;;;6.78;1.77;;;;;;;25.52;37.89;100897.05;1877051;75;21004;-79
2021/05/15 10:56:13;;;;;;;6.50;2.45;;;;;;;25.46;39.00;100895.13;1863258;76;20974;-75
2021/05/15 10:58:43;;;;;;;7.03;2.00;;;;;;;25.34;38.90;100898.47;1849155;76;21612;-77
2021/05/15 11:01:20;;;;;;;4.03;1.67;;;;;;;25.13;38.43;100901.48;1846778;76;21060;-79
2021/05/15 11:03:48;;;;;;;7.17;1.60;;;;;;;24.98;39.76;100905.20;1847185;76;21040;-85
2021/05/15 11:06:24;;;;;;;9.75;3.70;;;;;;;24.86;39.96;100903.53;1841821;76;21435;-77
2021/05/15 11:09:01;;;;;;;10.32;4.80;;;;;;;24.95;41.41;100897.11;1856577;76;21020;-76
2021/05/15 11:11:43;;;;;;;10.20;2.58;;;;;;;25.08;40.41;100901.20;1852388;76;21652;-82
2021/05/15 11:14:36;;;;;;;6.80;1.02;;;;;;;25.14;39.69;100903.62;1869176;76;21479;-77
2021/05/15 11:17:22;;;;;;;7.17;1.30;;;;;;;24.98;40.06;100896.73;1865719;76;21225;-76
2021/05/15 11:20:00;;;;;;;3.58;0.95;;;;;;;24.92;40.85;100892.16;1847072;77;20881;-72
2021/05/15 11:22:53;;;;;;;6.05;0.80;;;;;;;25.14;39.90;100889.02;1863419;76;21807;-77
2021/05/15 11:25:26;;;;;;;4.75;0.95;;;;;;;25.41;39.26;100891.38;1854818;76;21067;-75
2021/05/15 11:28:06;;;;;;;3.55;0.70;;;;;;;25.51;38.14;100898.55;1872045;76;21001;-78
2021/05/15 11:30:44;;;;;;;1.85;0.80;;;;;;;25.53;37.80;100899.17;1870441;76;20843;-81
2021/05/15 11:33:16;;;;;;;2.05;0.80;;;;;;;25.46;38.01;100898.30;1854219;76;20985;-75